West Yellowstone, MT

2:54 PM MDT on May 29, 2015 (GMT -0600)
Lower Beartrap | | Change Station
CLOSE
Current Station
Personal Weather Station
Location: West Yellowstone, MT
Elevation: 6565 ft
Nearby Weather Stations

Elev 6565 ft 44.79 °N, 111.14 °W | Updated 9 minutes ago

Partly Cloudy
Partly Cloudy
63.9 °F
Feels Like 63.9 °F
N
7.6
Wind Variable Wind from NW
Gusts 9.8 mph

Today
High -- | Low -- °F
--% Chance of Precip.
Yesterday
High -- | Low -- °F
Precip. -- in
5:44 AM 9:00 PM
Waxing Gibbous, 86% visible
Pressure 30.25 in
Visibility 10.0 miles
Clouds Scattered Clouds 6000 ft
Mostly Cloudy 7000 ft
Mostly Cloudy 8000 ft
Dew Point 38 °F
Humidity 39%
Rainfall 0.00 in
Snow Depth Not available.
UV 6 out of 12
Pollen 5.70 out of 12
Air Quality Not available.
Flu Activity Sporadic
METAR KWYS 292030Z AUTO 22005KT 10SM SCT060 BKN070 BKN080 16/02 A3025 RMK AO2

More Conditions Fewer Conditions

Pressure 30.25 in
Visibility 10.0 miles
Clouds Scattered Clouds 6000 ft
Mostly Cloudy 7000 ft
Mostly Cloudy 8000 ft
Dew Point 38 °F
Humidity 39%
Rainfall 0.00 in
Snow Depth Not available.
UV 6 out of 12
Pollen 5.70 out of 12
Air Quality Not available.
Flu Activity Sporadic
METAR KWYS 292030Z AUTO 22005KT 10SM SCT060 BKN070 BKN080 16/02 A3025 RMK AO2

More Conditions Fewer Conditions

10-Day Weather Forecast

Almanac

Astronomy

May. 29, 2015 Rise Set
Actual Time
Civil Twilight
Nautical Twilight
Astronomical Twilight
Moon
Length of Visible Light
Length of Day
Tomorrow will be .
, % of the Moon is Illuminated

Today's Extremes

State Highs State Lows

Community

WunderPhotos

Upload Photos

1,825,351 photos uploaded!

WunderBlogs® & News

Nearby

Air Quality

  Air Quality AQ Index Pollutant
Not available.

Snow Depth

Station Depth Elevation

Earthquake Activity

City Distance Mag. Time & Date
Minimum magnitude displayed is 2.5.

Coastal Water Temperatures

Place Temperature

Stations

Nearby Weather Stations

Station Location Temp. Windchill Dew Point Humidity Wind Precip. Elev Updated Type